sensor_id;sensor_type;location;lat;lon;timestamp;P1;durP1;ratioP1;P2;durP2;ratioP2
76310;SDS011;65120;59.304;18.294;2022-12-18T00:02:18;9.68;;;4.35;;
76310;SDS011;65120;59.304;18.294;2022-12-18T00:04:47;8.55;;;3.90;;
76310;SDS011;65120;59.304;18.294;2022-12-18T00:07:15;8.23;;;4.30;;
76310;SDS011;65120;59.304;18.294;2022-12-18T00:09:41;8.10;;;3.88;;
76310;SDS011;65120;59.304;18.294;2022-12-18T00:12:08;9.57;;;3.78;;
76310;SDS011;65120;59.304;18.294;2022-12-18T00:14:35;6.95;;;3.47;;
76310;SDS011;65120;59.304;18.294;2022-12-18T00:17:02;8.20;;;3.92;;
76310;SDS011;65120;59.304;18.294;2022-12-18T00:19:28;8.25;;;3.53;;
76310;SDS011;65120;59.304;18.294;2022-12-18T00:21:55;9.93;;;3.95;;
76310;SDS011;65120;59.304;18.294;2022-12-18T00:24:24;8.80;;;3.90;;
76310;SDS011;65120;59.304;18.294;2022-12-18T00:26:51;9.05;;;4.35;;
76310;SDS011;65120;59.304;18.294;2022-12-18T00:29:18;10.13;;;3.75;;
76310;SDS011;65120;59.304;18.294;2022-12-18T00:31:44;9.43;;;3.97;;
76310;SDS011;65120;59.304;18.294;2022-12-18T00:34:11;9.95;;;4.20;;
76310;SDS011;65120;59.304;18.294;2022-12-18T00:36:39;8.10;;;3.28;;
76310;SDS011;65120;59.304;18.294;2022-12-18T00:39:07;8.80;;;4.10;;
76310;SDS011;65120;59.304;18.294;2022-12-18T00:41:35;10.25;;;4.95;;
76310;SDS011;65120;59.304;18.294;2022-12-18T00:44:20;11.00;;;3.25;;
76310;SDS011;65120;59.304;18.294;2022-12-18T00:46:47;8.23;;;4.10;;
76310;SDS011;65120;59.304;18.294;2022-12-18T00:49:14;8.80;;;4.22;;
76310;SDS011;65120;59.304;18.294;2022-12-18T00:51:42;6.88;;;4.03;;
76310;SDS011;65120;59.304;18.294;2022-12-18T00:54:09;7.82;;;3.40;;
76310;SDS011;65120;59.304;18.294;2022-12-18T00:56:38;9.10;;;3.63;;
76310;SDS011;65120;59.304;18.294;2022-12-18T00:59:05;10.45;;;4.35;;
76310;SDS011;65120;59.304;18.294;2022-12-18T01:01:32;9.15;;;4.25;;
76310;SDS011;65120;59.304;18.294;2022-12-18T01:04:00;7.80;;;3.83;;
76310;SDS011;65120;59.304;18.294;2022-12-18T01:06:27;10.00;;;3.42;;
76310;SDS011;65120;59.304;18.294;2022-12-18T01:08:54;7.80;;;3.47;;
76310;SDS011;65120;59.304;18.294;2022-12-18T01:11:22;13.63;;;3.75;;
76310;SDS011;65120;59.304;18.294;2022-12-18T01:13:50;8.68;;;4.50;;
76310;SDS011;65120;59.304;18.294;2022-12-18T01:16:18;8.05;;;3.95;;
76310;SDS011;65120;59.304;18.294;2022-12-18T01:18:45;9.15;;;3.38;;
76310;SDS011;65120;59.304;18.294;2022-12-18T01:21:13;7.07;;;3.28;;
76310;SDS011;65120;59.304;18.294;2022-12-18T01:23:41;10.48;;;3.95;;
76310;SDS011;65120;59.304;18.294;2022-12-18T01:26:08;7.75;;;4.15;;
76310;SDS011;65120;59.304;18.294;2022-12-18T01:28:36;9.05;;;3.22;;
76310;SDS011;65120;59.304;18.294;2022-12-18T01:31:15;10.45;;;3.25;;
76310;SDS011;65120;59.304;18.294;2022-12-18T01:33:44;6.28;;;3.08;;
76310;SDS011;65120;59.304;18.294;2022-12-18T01:36:15;8.88;;;4.05;;
76310;SDS011;65120;59.304;18.294;2022-12-18T01:38:44;7.07;;;3.10;;
76310;SDS011;65120;59.304;18.294;2022-12-18T01:41:11;11.00;;;5.25;;
76310;SDS011;65120;59.304;18.294;2022-12-18T01:43:42;8.85;;;3.80;;
76310;SDS011;65120;59.304;18.294;2022-12-18T01:46:10;6.45;;;3.30;;
76310;SDS011;65120;59.304;18.294;2022-12-18T01:48:38;5.68;;;3.42;;
76310;SDS011;65120;59.304;18.294;2022-12-18T01:51:06;6.95;;;4.20;;
76310;SDS011;65120;59.304;18.294;2022-12-18T01:53:36;14.10;;;3.83;;
76310;SDS011;65120;59.304;18.294;2022-12-18T01:56:05;11.88;;;4.70;;
76310;SDS011;65120;59.304;18.294;2022-12-18T01:58:35;9.40;;;3.67;;
76310;SDS011;65120;59.304;18.294;2022-12-18T02:01:07;11.60;;;4.90;;
76310;SDS011;65120;59.304;18.294;2022-12-18T02:03:35;11.20;;;3.78;;
76310;SDS011;65120;59.304;18.294;2022-12-18T02:06:05;6.47;;;3.10;;
76310;SDS011;65120;59.304;18.294;2022-12-18T02:08:37;7.20;;;4.18;;
76310;SDS011;65120;59.304;18.294;2022-12-18T02:11:15;8.52;;;3.50;;
76310;SDS011;65120;59.304;18.294;2022-12-18T02:13:51;10.13;;;4.73;;
76310;SDS011;65120;59.304;18.294;2022-12-18T02:16:23;7.78;;;4.25;;
76310;SDS011;65120;59.304;18.294;2022-12-18T02:18:56;11.93;;;4.60;;
76310;SDS011;65120;59.304;18.294;2022-12-18T02:21:30;11.02;;;5.18;;
76310;SDS011;65120;59.304;18.294;2022-12-18T02:24:06;11.77;;;3.90;;
76310;SDS011;65120;59.304;18.294;2022-12-18T02:26:44;9.77;;;4.35;;
76310;SDS011;65120;59.304;18.294;2022-12-18T02:29:15;10.70;;;4.10;;
76310;SDS011;65120;59.304;18.294;2022-12-18T02:31:49;9.73;;;4.43;;
76310;SDS011;65120;59.304;18.294;2022-12-18T02:34:18;7.60;;;3.75;;
76310;SDS011;65120;59.304;18.294;2022-12-18T02:36:47;7.88;;;3.65;;
76310;SDS011;65120;59.304;18.294;2022-12-18T02:39:16;9.30;;;5.15;;
76310;SDS011;65120;59.304;18.294;2022-12-18T02:41:45;7.57;;;4.50;;
76310;SDS011;65120;59.304;18.294;2022-12-18T02:44:13;9.13;;;4.53;;
76310;SDS011;65120;59.304;18.294;2022-12-18T02:46:41;11.10;;;4.88;;
76310;SDS011;65120;59.304;18.294;2022-12-18T02:49:12;10.32;;;3.88;;
76310;SDS011;65120;59.304;18.294;2022-12-18T02:51:53;10.13;;;3.28;;
76310;SDS011;65120;59.304;18.294;2022-12-18T02:57:15;8.00;;;3.47;;
76310;SDS011;65120;59.304;18.294;2022-12-18T02:59:53;7.68;;;3.53;;
76310;SDS011;65120;59.304;18.294;2022-12-18T03:02:25;7.80;;;3.30;;
76310;SDS011;65120;59.304;18.294;2022-12-18T03:04:57;8.18;;;3.13;;
76310;SDS011;65120;59.304;18.294;2022-12-18T03:07:34;5.20;;;3.38;;
76310;SDS011;65120;59.304;18.294;2022-12-18T03:10:05;5.68;;;2.75;;
76310;SDS011;65120;59.304;18.294;2022-12-18T03:12:37;5.80;;;2.42;;
76310;SDS011;65120;59.304;18.294;2022-12-18T03:15:09;8.27;;;4.03;;
76310;SDS011;65120;59.304;18.294;2022-12-18T03:17:40;7.35;;;3.85;;
76310;SDS011;65120;59.304;18.294;2022-12-18T03:20:12;7.72;;;3.53;;
76310;SDS011;65120;59.304;18.294;2022-12-18T03:22:44;8.93;;;4.18;;
76310;SDS011;65120;59.304;18.294;2022-12-18T03:25:15;6.97;;;3.50;;
76310;SDS011;65120;59.304;18.294;2022-12-18T03:27:47;8.73;;;3.58;;
76310;SDS011;65120;59.304;18.294;2022-12-18T03:30:18;7.88;;;3.35;;
76310;SDS011;65120;59.304;18.294;2022-12-18T03:32:46;9.25;;;4.60;;
76310;SDS011;65120;59.304;18.294;2022-12-18T03:35:19;7.28;;;3.42;;
76310;SDS011;65120;59.304;18.294;2022-12-18T03:37:50;9.88;;;3.22;;
76310;SDS011;65120;59.304;18.294;2022-12-18T03:40:17;4.85;;;2.90;;
76310;SDS011;65120;59.304;18.294;2022-12-18T03:42:49;10.30;;;3.17;;
76310;SDS011;65120;59.304;18.294;2022-12-18T03:45:21;5.40;;;3.08;;
76310;SDS011;65120;59.304;18.294;2022-12-18T03:47:57;7.03;;;3.22;;
76310;SDS011;65120;59.304;18.294;2022-12-18T03:50:29;6.78;;;4.38;;
76310;SDS011;65120;59.304;18.294;2022-12-18T03:53:05;9.02;;;3.30;;
76310;SDS011;65120;59.304;18.294;2022-12-18T03:55:43;8.90;;;3.80;;
76310;SDS011;65120;59.304;18.294;2022-12-18T03:58:12;6.65;;;2.83;;
76310;SDS011;65120;59.304;18.294;2022-12-18T04:00:43;11.00;;;3.25;;
76310;SDS011;65120;59.304;18.294;2022-12-18T04:03:11;7.30;;;3.00;;
76310;SDS011;65120;59.304;18.294;2022-12-18T04:05:39;8.77;;;3.92;;
76310;SDS011;65120;59.304;18.294;2022-12-18T04:08:09;6.25;;;3.88;;
76310;SDS011;65120;59.304;18.294;2022-12-18T04:10:36;6.22;;;3.38;;
76310;SDS011;65120;59.304;18.294;2022-12-18T04:13:03;6.97;;;3.72;;
76310;SDS011;65120;59.304;18.294;2022-12-18T04:15:32;7.57;;;3.15;;
76310;SDS011;65120;59.304;18.294;2022-12-18T04:18:01;6.60;;;3.03;;
76310;SDS011;65120;59.304;18.294;2022-12-18T04:20:27;7.88;;;3.03;;
76310;SDS011;65120;59.304;18.294;2022-12-18T04:22:55;8.52;;;3.13;;
76310;SDS011;65120;59.304;18.294;2022-12-18T04:25:21;7.70;;;3.30;;
76310;SDS011;65120;59.304;18.294;2022-12-18T04:27:48;11.27;;;3.30;;
76310;SDS011;65120;59.304;18.294;2022-12-18T04:30:15;7.30;;;4.10;;
76310;SDS011;65120;59.304;18.294;2022-12-18T04:32:43;9.15;;;3.30;;
76310;SDS011;65120;59.304;18.294;2022-12-18T04:35:10;9.93;;;3.40;;
76310;SDS011;65120;59.304;18.294;2022-12-18T04:37:37;8.80;;;3.70;;
76310;SDS011;65120;59.304;18.294;2022-12-18T04:40:04;8.60;;;3.33;;
76310;SDS011;65120;59.304;18.294;2022-12-18T04:42:32;8.90;;;3.33;;
76310;SDS011;65120;59.304;18.294;2022-12-18T04:44:59;8.23;;;3.65;;
76310;SDS011;65120;59.304;18.294;2022-12-18T04:47:25;8.73;;;3.45;;
76310;SDS011;65120;59.304;18.294;2022-12-18T04:49:54;4.88;;;2.42;;
76310;SDS011;65120;59.304;18.294;2022-12-18T04:52:20;7.47;;;2.85;;
76310;SDS011;65120;59.304;18.294;2022-12-18T04:54:47;9.73;;;3.65;;
76310;SDS011;65120;59.304;18.294;2022-12-18T04:57:14;7.85;;;3.28;;
76310;SDS011;65120;59.304;18.294;2022-12-18T04:59:40;11.52;;;2.50;;
76310;SDS011;65120;59.304;18.294;2022-12-18T05:02:07;10.55;;;4.65;;
76310;SDS011;65120;59.304;18.294;2022-12-18T05:04:34;7.00;;;2.78;;
76310;SDS011;65120;59.304;18.294;2022-12-18T05:07:02;7.97;;;3.03;;
76310;SDS011;65120;59.304;18.294;2022-12-18T05:09:29;8.82;;;3.72;;
76310;SDS011;65120;59.304;18.294;2022-12-18T05:11:56;9.32;;;3.50;;
76310;SDS011;65120;59.304;18.294;2022-12-18T05:14:22;10.55;;;3.80;;
76310;SDS011;65120;59.304;18.294;2022-12-18T05:16:49;6.72;;;2.88;;
76310;SDS011;65120;59.304;18.294;2022-12-18T05:19:16;8.18;;;3.58;;
76310;SDS011;65120;59.304;18.294;2022-12-18T05:21:43;8.07;;;3.28;;
76310;SDS011;65120;59.304;18.294;2022-12-18T05:24:11;7.47;;;3.80;;
76310;SDS011;65120;59.304;18.294;2022-12-18T05:26:38;11.00;;;3.38;;
76310;SDS011;65120;59.304;18.294;2022-12-18T05:29:05;8.23;;;3.95;;
76310;SDS011;65120;59.304;18.294;2022-12-18T05:31:31;7.78;;;3.22;;
76310;SDS011;65120;59.304;18.294;2022-12-18T05:33:58;8.60;;;2.97;;
76310;SDS011;65120;59.304;18.294;2022-12-18T05:36:25;6.68;;;2.10;;
76310;SDS011;65120;59.304;18.294;2022-12-18T05:38:51;10.65;;;2.97;;
76310;SDS011;65120;59.304;18.294;2022-12-18T05:41:20;7.18;;;3.85;;
76310;SDS011;65120;59.304;18.294;2022-12-18T05:43:46;9.63;;;3.83;;
76310;SDS011;65120;59.304;18.294;2022-12-18T05:46:13;8.02;;;4.72;;
76310;SDS011;65120;59.304;18.294;2022-12-18T05:48:42;9.05;;;3.38;;
76310;SDS011;65120;59.304;18.294;2022-12-18T05:51:11;6.18;;;3.30;;
76310;SDS011;65120;59.304;18.294;2022-12-18T05:53:39;10.60;;;4.30;;
76310;SDS011;65120;59.304;18.294;2022-12-18T05:56:09;8.82;;;3.15;;
76310;SDS011;65120;59.304;18.294;2022-12-18T05:58:38;5.72;;;2.67;;
76310;SDS011;65120;59.304;18.294;2022-12-18T06:01:09;7.75;;;3.13;;
76310;SDS011;65120;59.304;18.294;2022-12-18T06:03:37;10.38;;;4.15;;
76310;SDS011;65120;59.304;18.294;2022-12-18T06:06:12;8.05;;;2.92;;
76310;SDS011;65120;59.304;18.294;2022-12-18T06:08:39;5.23;;;3.07;;
76310;SDS011;65120;59.304;18.294;2022-12-18T06:11:06;8.25;;;3.50;;
76310;SDS011;65120;59.304;18.294;2022-12-18T06:13:32;7.10;;;3.65;;
76310;SDS011;65120;59.304;18.294;2022-12-18T06:16:02;7.05;;;2.85;;
76310;SDS011;65120;59.304;18.294;2022-12-18T06:18:30;7.45;;;3.28;;
76310;SDS011;65120;59.304;18.294;2022-12-18T06:20:57;5.22;;;3.38;;
76310;SDS011;65120;59.304;18.294;2022-12-18T06:23:25;5.18;;;2.55;;
76310;SDS011;65120;59.304;18.294;2022-12-18T06:25:53;8.68;;;3.70;;
76310;SDS011;65120;59.304;18.294;2022-12-18T06:28:19;6.18;;;3.17;;
76310;SDS011;65120;59.304;18.294;2022-12-18T06:30:47;7.28;;;3.80;;
76310;SDS011;65120;59.304;18.294;2022-12-18T06:33:15;10.38;;;4.75;;
76310;SDS011;65120;59.304;18.294;2022-12-18T06:35:42;6.13;;;3.17;;
76310;SDS011;65120;59.304;18.294;2022-12-18T06:38:09;10.65;;;3.22;;
76310;SDS011;65120;59.304;18.294;2022-12-18T06:40:36;7.85;;;2.97;;
76310;SDS011;65120;59.304;18.294;2022-12-18T06:43:04;9.07;;;3.70;;
76310;SDS011;65120;59.304;18.294;2022-12-18T06:45:31;12.60;;;4.55;;
76310;SDS011;65120;59.304;18.294;2022-12-18T06:47:57;10.07;;;4.22;;
76310;SDS011;65120;59.304;18.294;2022-12-18T06:50:25;6.10;;;2.78;;
76310;SDS011;65120;59.304;18.294;2022-12-18T06:52:52;6.30;;;3.35;;
76310;SDS011;65120;59.304;18.294;2022-12-18T06:55:19;7.93;;;4.15;;
76310;SDS011;65120;59.304;18.294;2022-12-18T06:57:46;8.88;;;4.63;;
76310;SDS011;65120;59.304;18.294;2022-12-18T07:00:13;9.32;;;3.45;;
76310;SDS011;65120;59.304;18.294;2022-12-18T07:02:40;11.43;;;3.90;;
76310;SDS011;65120;59.304;18.294;2022-12-18T07:05:07;10.13;;;4.05;;
76310;SDS011;65120;59.304;18.294;2022-12-18T07:07:35;10.23;;;3.67;;
76310;SDS011;65120;59.304;18.294;2022-12-18T07:10:02;6.60;;;3.15;;
76310;SDS011;65120;59.304;18.294;2022-12-18T07:12:29;8.02;;;3.40;;
76310;SDS011;65120;59.304;18.294;2022-12-18T07:14:56;8.90;;;4.07;;
76310;SDS011;65120;59.304;18.294;2022-12-18T07:17:23;12.75;;;4.55;;
76310;SDS011;65120;59.304;18.294;2022-12-18T07:19:49;11.55;;;4.20;;
76310;SDS011;65120;59.304;18.294;2022-12-18T07:22:16;11.35;;;3.45;;
76310;SDS011;65120;59.304;18.294;2022-12-18T07:24:44;11.65;;;4.65;;
76310;SDS011;65120;59.304;18.294;2022-12-18T07:27:11;12.43;;;4.75;;
76310;SDS011;65120;59.304;18.294;2022-12-18T07:29:38;9.68;;;3.78;;
76310;SDS011;65120;59.304;18.294;2022-12-18T07:32:05;8.77;;;3.95;;
76310;SDS011;65120;59.304;18.294;2022-12-18T07:34:32;12.07;;;4.95;;
76310;SDS011;65120;59.304;18.294;2022-12-18T07:36:58;9.20;;;3.38;;
76310;SDS011;65120;59.304;18.294;2022-12-18T07:39:25;9.77;;;4.18;;
76310;SDS011;65120;59.304;18.294;2022-12-18T07:41:53;10.88;;;4.15;;
76310;SDS011;65120;59.304;18.294;2022-12-18T07:44:34;10.95;;;4.45;;
76310;SDS011;65120;59.304;18.294;2022-12-18T07:47:01;11.70;;;4.20;;
76310;SDS011;65120;59.304;18.294;2022-12-18T07:49:27;13.80;;;4.65;;
76310;SDS011;65120;59.304;18.294;2022-12-18T07:51:54;7.82;;;3.67;;
76310;SDS011;65120;59.304;18.294;2022-12-18T07:54:21;9.43;;;4.22;;
76310;SDS011;65120;59.304;18.294;2022-12-18T07:56:48;11.35;;;4.57;;
76310;SDS011;65120;59.304;18.294;2022-12-18T07:59:16;12.32;;;4.88;;
76310;SDS011;65120;59.304;18.294;2022-12-18T08:01:43;8.10;;;4.15;;
76310;SDS011;65120;59.304;18.294;2022-12-18T08:04:10;15.80;;;6.05;;
76310;SDS011;65120;59.304;18.294;2022-12-18T08:06:37;8.80;;;4.32;;
76310;SDS011;65120;59.304;18.294;2022-12-18T08:09:03;11.93;;;4.97;;
76310;SDS011;65120;59.304;18.294;2022-12-18T08:11:30;15.98;;;4.72;;
76310;SDS011;65120;59.304;18.294;2022-12-18T08:13:57;12.07;;;6.40;;
76310;SDS011;65120;59.304;18.294;2022-12-18T08:16:25;14.07;;;5.82;;
76310;SDS011;65120;59.304;18.294;2022-12-18T08:18:52;14.32;;;6.10;;
76310;SDS011;65120;59.304;18.294;2022-12-18T08:21:20;10.52;;;5.13;;
76310;SDS011;65120;59.304;18.294;2022-12-18T08:23:49;8.82;;;4.53;;
76310;SDS011;65120;59.304;18.294;2022-12-18T08:26:17;11.07;;;3.75;;
76310;SDS011;65120;59.304;18.294;2022-12-18T08:28:44;15.02;;;5.55;;
76310;SDS011;65120;59.304;18.294;2022-12-18T08:31:11;11.43;;;5.45;;
76310;SDS011;65120;59.304;18.294;2022-12-18T08:33:40;13.05;;;5.72;;
76310;SDS011;65120;59.304;18.294;2022-12-18T08:36:08;14.95;;;6.00;;
76310;SDS011;65120;59.304;18.294;2022-12-18T08:38:35;14.90;;;7.30;;
76310;SDS011;65120;59.304;18.294;2022-12-18T08:41:03;18.33;;;6.13;;
76310;SDS011;65120;59.304;18.294;2022-12-18T08:43:31;10.10;;;4.82;;
76310;SDS011;65120;59.304;18.294;2022-12-18T08:46:15;11.43;;;5.28;;
76310;SDS011;65120;59.304;18.294;2022-12-18T08:48:44;13.57;;;6.20;;
76310;SDS011;65120;59.304;18.294;2022-12-18T08:51:11;9.57;;;4.68;;
76310;SDS011;65120;59.304;18.294;2022-12-18T08:53:37;15.15;;;5.82;;
76310;SDS011;65120;59.304;18.294;2022-12-18T08:56:05;10.55;;;5.07;;
76310;SDS011;65120;59.304;18.294;2022-12-18T08:58:32;15.30;;;4.40;;
76310;SDS011;65120;59.304;18.294;2022-12-18T09:00:59;11.07;;;5.30;;
76310;SDS011;65120;59.304;18.294;2022-12-18T09:03:27;19.92;;;8.27;;
76310;SDS011;65120;59.304;18.294;2022-12-18T09:05:55;14.05;;;6.82;;
76310;SDS011;65120;59.304;18.294;2022-12-18T09:08:22;12.73;;;5.45;;
76310;SDS011;65120;59.304;18.294;2022-12-18T09:10:49;13.70;;;5.53;;
76310;SDS011;65120;59.304;18.294;2022-12-18T09:13:17;10.07;;;4.72;;
76310;SDS011;65120;59.304;18.294;2022-12-18T09:15:44;13.05;;;5.18;;
76310;SDS011;65120;59.304;18.294;2022-12-18T09:18:12;14.45;;;5.32;;
76310;SDS011;65120;59.304;18.294;2022-12-18T09:20:40;8.00;;;4.70;;
76310;SDS011;65120;59.304;18.294;2022-12-18T09:23:08;8.75;;;4.03;;
76310;SDS011;65120;59.304;18.294;2022-12-18T09:25:36;12.10;;;5.25;;
76310;SDS011;65120;59.304;18.294;2022-12-18T09:28:03;12.38;;;5.07;;
76310;SDS011;65120;59.304;18.294;2022-12-18T09:30:32;7.82;;;4.40;;
76310;SDS011;65120;59.304;18.294;2022-12-18T09:32:59;12.32;;;5.32;;
76310;SDS011;65120;59.304;18.294;2022-12-18T09:35:26;11.73;;;5.47;;
76310;SDS011;65120;59.304;18.294;2022-12-18T09:37:54;11.18;;;5.18;;
76310;SDS011;65120;59.304;18.294;2022-12-18T09:40:22;11.20;;;5.03;;
76310;SDS011;65120;59.304;18.294;2022-12-18T09:42:53;12.13;;;4.97;;
76310;SDS011;65120;59.304;18.294;2022-12-18T09:45:25;9.48;;;5.18;;
76310;SDS011;65120;59.304;18.294;2022-12-18T09:47:53;14.02;;;4.45;;
76310;SDS011;65120;59.304;18.294;2022-12-18T09:50:23;11.35;;;4.28;;
76310;SDS011;65120;59.304;18.294;2022-12-18T09:52:55;8.10;;;3.90;;
76310;SDS011;65120;59.304;18.294;2022-12-18T09:55:25;15.68;;;5.38;;
76310;SDS011;65120;59.304;18.294;2022-12-18T09:57:56;9.25;;;4.47;;
76310;SDS011;65120;59.304;18.294;2022-12-18T10:00:27;12.82;;;5.35;;
76310;SDS011;65120;59.304;18.294;2022-12-18T10:02:56;14.40;;;5.57;;
76310;SDS011;65120;59.304;18.294;2022-12-18T10:05:29;8.93;;;3.75;;
76310;SDS011;65120;59.304;18.294;2022-12-18T10:08:02;9.77;;;4.78;;
76310;SDS011;65120;59.304;18.294;2022-12-18T10:10:38;10.70;;;4.75;;
76310;SDS011;65120;59.304;18.294;2022-12-18T10:13:10;12.82;;;5.30;;
76310;SDS011;65120;59.304;18.294;2022-12-18T10:15:50;11.30;;;5.45;;
76310;SDS011;65120;59.304;18.294;2022-12-18T10:18:27;11.23;;;4.18;;
76310;SDS011;65120;59.304;18.294;2022-12-18T10:21:03;10.80;;;5.32;;
76310;SDS011;65120;59.304;18.294;2022-12-18T10:23:37;14.60;;;4.43;;
76310;SDS011;65120;59.304;18.294;2022-12-18T10:26:14;11.77;;;3.05;;
76310;SDS011;65120;59.304;18.294;2022-12-18T10:28:41;7.40;;;3.92;;
76310;SDS011;65120;59.304;18.294;2022-12-18T10:31:10;8.45;;;4.03;;
76310;SDS011;65120;59.304;18.294;2022-12-18T10:33:42;8.68;;;4.30;;
76310;SDS011;65120;59.304;18.294;2022-12-18T10:36:09;10.88;;;4.90;;
76310;SDS011;65120;59.304;18.294;2022-12-18T10:38:36;12.57;;;5.03;;
76310;SDS011;65120;59.304;18.294;2022-12-18T10:41:04;13.73;;;4.85;;
76310;SDS011;65120;59.304;18.294;2022-12-18T10:43:36;12.18;;;4.68;;
76310;SDS011;65120;59.304;18.294;2022-12-18T10:46:14;8.90;;;3.95;;
76310;SDS011;65120;59.304;18.294;2022-12-18T10:48:51;6.03;;;2.28;;
76310;SDS011;65120;59.304;18.294;2022-12-18T10:51:21;8.20;;;4.07;;
76310;SDS011;65120;59.304;18.294;2022-12-18T10:53:54;8.65;;;4.28;;
76310;SDS011;65120;59.304;18.294;2022-12-18T10:56:23;11.38;;;4.53;;
76310;SDS011;65120;59.304;18.294;2022-12-18T10:58:57;7.72;;;4.03;;
76310;SDS011;65120;59.304;18.294;2022-12-18T11:01:26;10.73;;;3.97;;
76310;SDS011;65120;59.304;18.294;2022-12-18T11:04:00;14.20;;;4.75;;
76310;SDS011;65120;59.304;18.294;2022-12-18T11:06:33;12.25;;;4.90;;
76310;SDS011;65120;59.304;18.294;2022-12-18T11:09:00;9.63;;;5.15;;
76310;SDS011;65120;59.304;18.294;2022-12-18T11:11:29;10.43;;;3.88;;
76310;SDS011;65120;59.304;18.294;2022-12-18T11:14:00;13.25;;;4.85;;
76310;SDS011;65120;59.304;18.294;2022-12-18T11:16:32;13.23;;;5.03;;
76310;SDS011;65120;59.304;18.294;2022-12-18T11:21:56;7.10;;;4.05;;
76310;SDS011;65120;59.304;18.294;2022-12-18T11:24:25;9.85;;;5.22;;
76310;SDS011;65120;59.304;18.294;2022-12-18T11:26:56;7.18;;;3.72;;
76310;SDS011;65120;59.304;18.294;2022-12-18T11:29:28;6.53;;;3.63;;
76310;SDS011;65120;59.304;18.294;2022-12-18T11:32:13;7.97;;;4.65;;
76310;SDS011;65120;59.304;18.294;2022-12-18T11:34:51;11.57;;;4.32;;
76310;SDS011;65120;59.304;18.294;2022-12-18T11:37:22;10.40;;;5.47;;
76310;SDS011;65120;59.304;18.294;2022-12-18T11:39:49;10.45;;;4.55;;
76310;SDS011;65120;59.304;18.294;2022-12-18T11:42:23;9.05;;;4.05;;
76310;SDS011;65120;59.304;18.294;2022-12-18T11:44:59;7.72;;;4.03;;
76310;SDS011;65120;59.304;18.294;2022-12-18T11:47:36;9.48;;;4.18;;
76310;SDS011;65120;59.304;18.294;2022-12-18T11:50:10;7.53;;;3.95;;
76310;SDS011;65120;59.304;18.294;2022-12-18T11:52:40;9.77;;;4.50;;
76310;SDS011;65120;59.304;18.294;2022-12-18T11:55:10;9.75;;;4.25;;
76310;SDS011;65120;59.304;18.294;2022-12-18T11:57:41;5.35;;;3.10;;
76310;SDS011;65120;59.304;18.294;2022-12-18T12:00:22;10.80;;;3.83;;
76310;SDS011;65120;59.304;18.294;2022-12-18T12:02:57;10.40;;;4.28;;
76310;SDS011;65120;59.304;18.294;2022-12-18T12:05:48;7.50;;;3.42;;
76310;SDS011;65120;59.304;18.294;2022-12-18T12:08:30;13.48;;;4.30;;
76310;SDS011;65120;59.304;18.294;2022-12-18T12:11:06;9.32;;;4.07;;
76310;SDS011;65120;59.304;18.294;2022-12-18T12:13:43;11.60;;;3.70;;
76310;SDS011;65120;59.304;18.294;2022-12-18T12:16:28;6.72;;;3.63;;
76310;SDS011;65120;59.304;18.294;2022-12-18T12:19:02;7.47;;;3.10;;
76310;SDS011;65120;59.304;18.294;2022-12-18T12:21:45;8.38;;;4.00;;
76310;SDS011;65120;59.304;18.294;2022-12-18T12:24:23;13.43;;;4.07;;
76310;SDS011;65120;59.304;18.294;2022-12-18T12:27:03;8.00;;;3.50;;
76310;SDS011;65120;59.304;18.294;2022-12-18T12:29:42;12.32;;;4.78;;
76310;SDS011;65120;59.304;18.294;2022-12-18T12:32:22;7.00;;;4.72;;
76310;SDS011;65120;59.304;18.294;2022-12-18T12:35:03;5.57;;;2.88;;
76310;SDS011;65120;59.304;18.294;2022-12-18T12:37:43;8.15;;;3.33;;
76310;SDS011;65120;59.304;18.294;2022-12-18T12:40:20;7.75;;;3.40;;
76310;SDS011;65120;59.304;18.294;2022-12-18T12:42:52;7.30;;;3.75;;
76310;SDS011;65120;59.304;18.294;2022-12-18T12:45:41;8.15;;;3.70;;
76310;SDS011;65120;59.304;18.294;2022-12-18T12:48:16;7.32;;;3.45;;
76310;SDS011;65120;59.304;18.294;2022-12-18T12:50:47;7.95;;;3.70;;
76310;SDS011;65120;59.304;18.294;2022-12-18T12:53:19;8.60;;;3.17;;
76310;SDS011;65120;59.304;18.294;2022-12-18T12:55:50;7.68;;;3.25;;
76310;SDS011;65120;59.304;18.294;2022-12-18T12:58:19;9.02;;;3.88;;
76310;SDS011;65120;59.304;18.294;2022-12-18T13:00:58;11.10;;;3.70;;
76310;SDS011;65120;59.304;18.294;2022-12-18T13:03:35;8.00;;;3.83;;
76310;SDS011;65120;59.304;18.294;2022-12-18T13:06:08;9.50;;;4.75;;
76310;SDS011;65120;59.304;18.294;2022-12-18T13:11:30;12.30;;;3.47;;
76310;SDS011;65120;59.304;18.294;2022-12-18T13:14:23;13.32;;;3.88;;
76310;SDS011;65120;59.304;18.294;2022-12-18T13:17:03;8.32;;;2.75;;
76310;SDS011;65120;59.304;18.294;2022-12-18T13:19:43;8.65;;;2.88;;
76310;SDS011;65120;59.304;18.294;2022-12-18T13:22:20;6.65;;;3.30;;
76310;SDS011;65120;59.304;18.294;2022-12-18T13:24:49;11.30;;;3.53;;
76310;SDS011;65120;59.304;18.294;2022-12-18T13:36:23;4.85;;;3.10;;
76310;SDS011;65120;59.304;18.294;2022-12-18T13:48:16;5.07;;;2.83;;
76310;SDS011;65120;59.304;18.294;2022-12-18T13:50:48;3.75;;;2.13;;
76310;SDS011;65120;59.304;18.294;2022-12-18T13:53:20;7.63;;;2.85;;
76310;SDS011;65120;59.304;18.294;2022-12-18T13:55:50;3.88;;;1.88;;
76310;SDS011;65120;59.304;18.294;2022-12-18T13:58:17;8.38;;;1.98;;
76310;SDS011;65120;59.304;18.294;2022-12-18T14:00:43;4.93;;;2.17;;
76310;SDS011;65120;59.304;18.294;2022-12-18T14:03:17;6.13;;;2.13;;
76310;SDS011;65120;59.304;18.294;2022-12-18T14:05:47;11.50;;;2.53;;
76310;SDS011;65120;59.304;18.294;2022-12-18T14:08:21;6.13;;;2.25;;
76310;SDS011;65120;59.304;18.294;2022-12-18T14:10:51;9.70;;;2.35;;
76310;SDS011;65120;59.304;18.294;2022-12-18T14:13:19;4.18;;;1.65;;
76310;SDS011;65120;59.304;18.294;2022-12-18T14:15:50;5.70;;;2.13;;
76310;SDS011;65120;59.304;18.294;2022-12-18T14:18:19;7.20;;;2.60;;
76310;SDS011;65120;59.304;18.294;2022-12-18T14:20:49;3.50;;;1.55;;
76310;SDS011;65120;59.304;18.294;2022-12-18T14:23:29;6.18;;;1.95;;
76310;SDS011;65120;59.304;18.294;2022-12-18T14:25:58;10.20;;;2.00;;
76310;SDS011;65120;59.304;18.294;2022-12-18T14:28:25;6.68;;;1.80;;
76310;SDS011;65120;59.304;18.294;2022-12-18T14:30:52;3.55;;;1.42;;
76310;SDS011;65120;59.304;18.294;2022-12-18T14:33:21;10.40;;;2.83;;
76310;SDS011;65120;59.304;18.294;2022-12-18T14:35:53;6.18;;;2.45;;
76310;SDS011;65120;59.304;18.294;2022-12-18T14:38:23;11.48;;;2.15;;
76310;SDS011;65120;59.304;18.294;2022-12-18T14:40:53;9.50;;;4.28;;
76310;SDS011;65120;59.304;18.294;2022-12-18T14:43:22;8.45;;;2.75;;
76310;SDS011;65120;59.304;18.294;2022-12-18T14:45:49;7.20;;;1.80;;
76310;SDS011;65120;59.304;18.294;2022-12-18T14:48:17;9.40;;;2.85;;
76310;SDS011;65120;59.304;18.294;2022-12-18T14:50:54;7.13;;;1.88;;
76310;SDS011;65120;59.304;18.294;2022-12-18T14:53:23;7.68;;;2.15;;
76310;SDS011;65120;59.304;18.294;2022-12-18T14:55:59;8.95;;;1.73;;
76310;SDS011;65120;59.304;18.294;2022-12-18T14:58:26;5.47;;;1.83;;
76310;SDS011;65120;59.304;18.294;2022-12-18T15:00:53;3.83;;;1.48;;
76310;SDS011;65120;59.304;18.294;2022-12-18T15:03:20;10.18;;;1.90;;
76310;SDS011;65120;59.304;18.294;2022-12-18T15:05:47;4.05;;;1.38;;
76310;SDS011;65120;59.304;18.294;2022-12-18T15:08:24;4.28;;;1.52;;
76310;SDS011;65120;59.304;18.294;2022-12-18T15:10:55;4.78;;;1.67;;
76310;SDS011;65120;59.304;18.294;2022-12-18T15:13:24;6.05;;;1.40;;
76310;SDS011;65120;59.304;18.294;2022-12-18T15:15:51;5.13;;;0.85;;